createdAt,value
2018-07-01T01:31:56.925Z,0.00
2018-07-01T01:31:57.498Z,0.00
2018-07-01T01:31:58.098Z,0.00
2018-07-01T01:31:58.696Z,0.00
2018-07-01T01:31:59.293Z,0.00
2018-07-01T01:31:59.897Z,0.00
2018-07-01T01:32:00.494Z,0.00
2018-07-01T01:32:01.094Z,0.00
2018-07-01T01:32:54.575Z,0.00
2018-07-01T01:32:55.149Z,0.00
2018-07-01T01:32:55.748Z,0.00
2018-07-01T01:32:56.346Z,0.00
2018-07-01T01:32:56.947Z,0.00
2018-07-01T01:32:57.549Z,0.00
2018-07-01T01:32:58.147Z,0.00
2018-07-01T01:32:58.758Z,0.00
2018-07-01T01:33:53.252Z,0.00
2018-07-01T01:33:53.823Z,0.00
2018-07-01T01:33:54.423Z,0.00
2018-07-01T01:33:55.027Z,0.00
2018-07-01T01:33:55.623Z,0.00
2018-07-01T01:33:56.221Z,0.00
2018-07-01T01:33:56.823Z,0.00
2018-07-01T01:33:57.430Z,0.00
2018-07-01T01:34:51.928Z,0.00
2018-07-01T01:34:52.500Z,0.00
2018-07-01T01:34:53.099Z,0.00
2018-07-01T01:34:53.699Z,0.00
2018-07-01T01:34:54.303Z,0.00
2018-07-01T01:34:54.901Z,0.00
2018-07-01T01:34:55.498Z,0.00
2018-07-01T01:34:56.099Z,0.00
2018-07-01T01:35:50.612Z,0.00
2018-07-01T01:35:51.176Z,0.00
2018-07-01T01:35:51.776Z,0.00
2018-07-01T01:35:52.376Z,0.00
2018-07-01T01:35:52.976Z,0.00
2018-07-01T01:35:53.575Z,0.00
2018-07-01T01:35:54.175Z,0.00
2018-07-01T01:35:54.775Z,0.00
2018-07-01T01:36:49.279Z,0.00
2018-07-01T01:36:49.853Z,0.00
2018-07-01T01:36:50.452Z,0.00
2018-07-01T01:36:51.052Z,0.00
2018-07-01T01:36:51.652Z,0.00
2018-07-01T01:36:52.258Z,0.00
2018-07-01T01:36:52.850Z,0.00
2018-07-01T01:36:53.449Z,0.00
2018-07-01T01:37:47.956Z,0.00
2018-07-01T01:37:48.527Z,0.00
2018-07-01T01:37:49.127Z,0.00
2018-07-01T01:37:49.727Z,0.00
2018-07-01T01:37:50.329Z,0.00
2018-07-01T01:37:50.927Z,0.00
2018-07-01T01:37:51.527Z,0.00
2018-07-01T01:37:52.128Z,0.00
2018-07-01T01:38:46.631Z,0.00
2018-07-01T01:38:47.206Z,0.00
2018-07-01T01:38:47.804Z,0.00
2018-07-01T01:38:48.403Z,0.00
2018-07-01T01:38:49.006Z,0.00
2018-07-01T01:38:49.603Z,0.00
2018-07-01T01:38:50.203Z,0.00
2018-07-01T01:38:50.803Z,0.00
2018-07-01T01:39:44.285Z,0.00
2018-07-01T01:39:44.861Z,0.00
2018-07-01T01:39:45.457Z,0.00
2018-07-01T01:39:46.056Z,0.00
2018-07-01T01:39:46.657Z,0.00
2018-07-01T01:39:47.258Z,0.00
2018-07-01T01:39:47.858Z,0.00
2018-07-01T01:39:48.456Z,0.00
2018-07-01T01:40:42.961Z,0.00
2018-07-01T01:40:43.531Z,0.00
2018-07-01T01:40:44.132Z,0.00
2018-07-01T01:40:44.731Z,0.00
2018-07-01T01:40:45.342Z,0.00
2018-07-01T01:40:45.932Z,0.00
2018-07-01T01:40:46.531Z,0.00
2018-07-01T01:40:47.131Z,0.00
2018-07-01T01:41:40.615Z,0.00
2018-07-01T01:41:41.185Z,0.00
2018-07-01T01:41:41.785Z,0.00
2018-07-01T01:41:42.384Z,0.00
2018-07-01T01:41:42.985Z,0.00
2018-07-01T01:41:43.584Z,0.00
2018-07-01T01:41:44.184Z,0.00
2018-07-01T01:41:44.783Z,0.00
2018-07-01T01:42:38.265Z,0.00
2018-07-01T01:42:38.836Z,0.00
2018-07-01T01:42:39.436Z,0.00
2018-07-01T01:42:40.038Z,0.00
2018-07-01T01:42:40.639Z,0.00
2018-07-01T01:42:41.236Z,0.00
2018-07-01T01:42:41.837Z,0.00
2018-07-01T01:42:42.437Z,0.00
2018-07-01T01:43:36.940Z,0.00
2018-07-01T01:43:37.511Z,0.00
2018-07-01T01:43:38.111Z,0.00
2018-07-01T01:43:38.711Z,0.00
2018-07-01T01:43:39.313Z,0.00
2018-07-01T01:43:39.912Z,0.00
2018-07-01T01:43:40.511Z,0.00
2018-07-01T01:43:41.114Z,0.00
2018-07-01T01:44:34.592Z,0.00
2018-07-01T01:44:35.164Z,0.00
2018-07-01T01:44:35.764Z,0.00
2018-07-01T01:44:36.364Z,0.00
2018-07-01T01:44:36.966Z,0.00
2018-07-01T01:44:37.566Z,0.00
2018-07-01T01:44:38.163Z,0.00
2018-07-01T01:44:38.764Z,0.00
2018-07-01T01:45:32.244Z,0.00
2018-07-01T01:45:32.823Z,0.00
2018-07-01T01:45:33.415Z,0.00
2018-07-01T01:45:34.016Z,0.00
2018-07-01T01:45:34.617Z,0.00
2018-07-01T01:45:35.216Z,0.00
2018-07-01T01:45:35.815Z,0.00
2018-07-01T01:45:36.416Z,0.00
2018-07-01T01:46:30.919Z,0.00
2018-07-01T01:46:31.517Z,0.00
2018-07-01T01:46:32.092Z,0.00
2018-07-01T01:46:32.691Z,0.00
2018-07-01T01:46:33.290Z,0.00
2018-07-01T01:46:33.894Z,0.00
2018-07-01T01:46:34.491Z,0.00
2018-07-01T01:46:35.094Z,0.00
2018-07-01T01:47:28.570Z,0.00
2018-07-01T01:47:29.144Z,0.00
2018-07-01T01:47:29.743Z,0.00
2018-07-01T01:47:30.344Z,0.00
2018-07-01T01:47:30.944Z,0.00
2018-07-01T01:47:31.543Z,0.00
2018-07-01T01:47:32.143Z,0.00
2018-07-01T01:47:32.742Z,0.00
2018-07-01T01:48:26.223Z,0.00
2018-07-01T01:48:26.795Z,0.00
2018-07-01T01:48:27.395Z,0.00
2018-07-01T01:48:27.996Z,0.00
2018-07-01T01:48:28.596Z,0.00
2018-07-01T01:48:29.195Z,0.00
2018-07-01T01:48:29.794Z,0.00
2018-07-01T01:48:30.398Z,0.00
2018-07-01T01:49:24.899Z,0.00
2018-07-01T01:49:25.470Z,0.00
2018-07-01T01:49:26.071Z,0.00
2018-07-01T01:49:26.670Z,0.00
2018-07-01T01:49:27.270Z,0.00
2018-07-01T01:49:27.869Z,0.00
2018-07-01T01:49:28.470Z,0.00
2018-07-01T01:49:29.069Z,0.00
2018-07-01T01:50:22.551Z,0.00
2018-07-01T01:50:23.123Z,0.00
2018-07-01T01:50:23.722Z,0.00
2018-07-01T01:50:24.326Z,0.00
2018-07-01T01:50:24.923Z,0.00
2018-07-01T01:50:25.522Z,0.00
2018-07-01T01:50:26.124Z,0.00
2018-07-01T01:50:26.723Z,0.00
2018-07-01T01:51:21.227Z,0.00
2018-07-01T01:51:21.798Z,0.00
2018-07-01T01:51:22.401Z,0.00
2018-07-01T01:51:22.998Z,0.00
2018-07-01T01:51:23.597Z,0.00
2018-07-01T01:51:24.197Z,0.00
2018-07-01T01:51:24.798Z,0.00
2018-07-01T01:51:25.397Z,0.00
2018-07-01T01:52:18.882Z,0.00
2018-07-01T01:52:19.450Z,0.00
2018-07-01T01:52:20.051Z,0.00
2018-07-01T01:52:20.651Z,0.00
2018-07-01T01:52:21.251Z,0.00
2018-07-01T01:52:21.852Z,0.00
2018-07-01T01:52:22.449Z,0.00
2018-07-01T01:52:23.050Z,0.00
2018-07-01T01:53:17.553Z,0.00
2018-07-01T01:53:18.125Z,0.00
2018-07-01T01:53:18.725Z,0.00
2018-07-01T01:53:19.325Z,0.00
2018-07-01T01:53:19.930Z,0.00
2018-07-01T01:53:20.524Z,0.00
2018-07-01T01:53:21.125Z,0.00
2018-07-01T01:53:21.725Z,0.00
2018-07-01T01:54:16.229Z,0.00
2018-07-01T01:54:16.804Z,0.00
2018-07-01T01:54:17.403Z,0.00
2018-07-01T01:54:17.999Z,0.00
2018-07-01T01:54:18.598Z,0.00
2018-07-01T01:54:19.199Z,0.00
2018-07-01T01:54:19.799Z,0.00
2018-07-01T01:54:20.398Z,0.00
2018-07-01T01:55:14.907Z,0.00
2018-07-01T01:55:15.477Z,0.00
2018-07-01T01:55:16.076Z,0.00
2018-07-01T01:55:16.676Z,0.00
2018-07-01T01:55:17.277Z,0.00
2018-07-01T01:55:17.876Z,0.00
2018-07-01T01:55:18.477Z,0.00
2018-07-01T01:55:19.077Z,0.00
2018-07-01T01:56:12.557Z,0.00
2018-07-01T01:56:13.129Z,0.00
2018-07-01T01:56:13.728Z,0.00
2018-07-01T01:56:14.331Z,0.00
2018-07-01T01:56:14.928Z,0.00
2018-07-01T01:56:15.529Z,0.00
2018-07-01T01:56:16.130Z,0.00
2018-07-01T01:56:16.728Z,0.00
2018-07-01T01:57:10.215Z,0.00
2018-07-01T01:57:10.781Z,0.00
2018-07-01T01:57:11.383Z,0.00
2018-07-01T01:57:11.985Z,0.00
2018-07-01T01:57:12.581Z,0.00
2018-07-01T01:57:13.185Z,0.00
2018-07-01T01:57:13.782Z,0.00
2018-07-01T01:57:14.381Z,0.00
2018-07-01T01:58:08.884Z,0.00
2018-07-01T01:58:09.457Z,0.00
2018-07-01T01:58:10.056Z,0.00
2018-07-01T01:58:10.657Z,0.00
2018-07-01T01:58:11.255Z,0.00
2018-07-01T01:58:11.855Z,0.00
2018-07-01T01:58:12.456Z,0.00
2018-07-01T01:58:13.056Z,0.00
2018-07-01T01:59:06.541Z,0.00
2018-07-01T01:59:07.113Z,0.00
2018-07-01T01:59:07.708Z,0.00
2018-07-01T01:59:08.309Z,0.00
2018-07-01T01:59:08.908Z,0.00
2018-07-01T01:59:09.508Z,0.00
2018-07-01T01:59:10.110Z,0.00
2018-07-01T01:59:10.708Z,0.00
2018-07-01T02:00:05.212Z,0.00
2018-07-01T02:00:05.785Z,0.00
2018-07-01T02:00:06.384Z,0.00
2018-07-01T02:00:06.985Z,0.00
2018-07-01T02:00:07.584Z,0.00
2018-07-01T02:00:08.184Z,0.00
2018-07-01T02:00:08.783Z,0.00
2018-07-01T02:00:09.383Z,0.00
2018-07-01T02:01:03.887Z,0.00
2018-07-01T02:01:04.459Z,0.00
2018-07-01T02:01:05.059Z,0.00
2018-07-01T02:01:05.659Z,0.00
2018-07-01T02:01:06.258Z,0.00
2018-07-01T02:01:06.857Z,0.00
2018-07-01T02:01:07.462Z,0.00
2018-07-01T02:01:08.059Z,0.00
2018-07-01T02:02:01.550Z,0.00
2018-07-01T02:02:02.109Z,0.00
2018-07-01T02:02:02.710Z,0.00
2018-07-01T02:02:03.310Z,0.00
2018-07-01T02:02:03.909Z,0.00
2018-07-01T02:02:04.512Z,0.00
2018-07-01T02:02:05.110Z,0.00
2018-07-01T02:02:05.708Z,0.00
2018-07-01T02:02:59.190Z,0.00
2018-07-01T02:02:59.763Z,0.00
2018-07-01T02:03:00.362Z,0.00
2018-07-01T02:03:00.968Z,0.00
2018-07-01T02:03:01.565Z,0.00
2018-07-01T02:03:02.164Z,0.00
2018-07-01T02:03:02.763Z,0.00
2018-07-01T02:03:03.363Z,0.00
2018-07-01T02:03:56.843Z,4.00
2018-07-01T02:03:57.414Z,4.00
2018-07-01T02:03:58.015Z,4.00
2018-07-01T02:03:58.618Z,4.00
2018-07-01T02:03:59.216Z,4.00
2018-07-01T02:03:59.815Z,4.00
2018-07-01T02:04:00.426Z,4.00
2018-07-01T02:04:01.015Z,4.00
2018-07-01T02:04:54.496Z,4.00
2018-07-01T02:04:55.066Z,4.00
2018-07-01T02:04:55.668Z,4.00
2018-07-01T02:04:56.268Z,4.00
2018-07-01T02:04:56.867Z,4.00
2018-07-01T02:04:57.467Z,4.00
2018-07-01T02:04:58.068Z,4.00
2018-07-01T02:04:58.668Z,4.00
2018-07-01T02:05:53.174Z,0.00
2018-07-01T02:05:53.743Z,0.00
2018-07-01T02:05:54.341Z,4.00
2018-07-01T02:05:54.941Z,0.00
2018-07-01T02:05:55.543Z,4.00
2018-07-01T02:05:56.143Z,0.00
2018-07-01T02:05:56.740Z,0.00
2018-07-01T02:05:57.341Z,4.00
2018-07-01T02:06:50.822Z,0.00
2018-07-01T02:06:51.394Z,0.00
2018-07-01T02:06:51.994Z,0.00
2018-07-01T02:06:52.595Z,0.00
2018-07-01T02:06:53.194Z,0.00
2018-07-01T02:06:53.793Z,0.00
2018-07-01T02:06:54.393Z,0.00
2018-07-01T02:06:54.994Z,0.00
2018-07-01T02:07:49.503Z,0.00
2018-07-01T02:07:50.069Z,0.00
2018-07-01T02:07:50.671Z,0.00
2018-07-01T02:07:51.271Z,0.00
2018-07-01T02:07:51.869Z,0.00
2018-07-01T02:07:52.470Z,0.00
2018-07-01T02:07:53.085Z,0.00
2018-07-01T02:07:53.669Z,0.00
2018-07-01T02:08:48.173Z,0.00
2018-07-01T02:08:48.746Z,0.00
2018-07-01T02:08:49.345Z,0.00
2018-07-01T02:08:49.944Z,0.00
2018-07-01T02:08:50.546Z,0.00
2018-07-01T02:08:51.144Z,0.00
2018-07-01T02:08:51.743Z,4.00
2018-07-01T02:08:52.345Z,4.00
2018-07-01T02:09:46.848Z,4.00
2018-07-01T02:09:47.422Z,4.00
2018-07-01T02:09:48.023Z,4.00
2018-07-01T02:09:48.623Z,4.00
2018-07-01T02:09:49.221Z,4.00
2018-07-01T02:09:49.822Z,4.00
2018-07-01T02:09:50.421Z,4.00
2018-07-01T02:09:51.027Z,4.00
2018-07-01T02:10:45.524Z,4.00
2018-07-01T02:10:46.098Z,0.00
2018-07-01T02:10:46.697Z,4.00
2018-07-01T02:10:47.298Z,4.00
2018-07-01T02:10:47.897Z,0.00
2018-07-01T02:10:48.496Z,4.00
2018-07-01T02:10:49.096Z,4.00
2018-07-01T02:10:49.697Z,0.00
2018-07-01T02:11:55.873Z,0.00
2018-07-01T02:11:56.444Z,0.00
2018-07-01T02:11:57.044Z,0.00
2018-07-01T02:11:57.645Z,0.00
2018-07-01T02:11:58.244Z,0.00
2018-07-01T02:11:58.845Z,0.00
2018-07-01T02:11:59.450Z,0.00
2018-07-01T02:12:00.045Z,0.00
2018-07-01T02:12:54.551Z,4.00
2018-07-01T02:12:55.122Z,4.00
2018-07-01T02:12:55.722Z,4.00
2018-07-01T02:12:56.323Z,4.00
2018-07-01T02:12:56.922Z,4.00
2018-07-01T02:12:57.522Z,4.00
2018-07-01T02:12:58.121Z,4.00
2018-07-01T02:12:58.721Z,4.00
2018-07-01T02:13:53.228Z,0.00
2018-07-01T02:13:53.797Z,0.00
2018-07-01T02:13:54.398Z,0.00
2018-07-01T02:13:54.998Z,0.00
2018-07-01T02:13:55.597Z,0.00
2018-07-01T02:13:56.197Z,0.00
2018-07-01T02:13:56.796Z,0.00
2018-07-01T02:13:57.397Z,0.00
2018-07-01T02:14:50.881Z,4.00
2018-07-01T02:14:51.450Z,4.00
2018-07-01T02:14:52.052Z,4.00
2018-07-01T02:14:52.650Z,4.00
2018-07-01T02:14:53.250Z,4.00
2018-07-01T02:14:53.853Z,4.00
2018-07-01T02:14:54.462Z,4.00
2018-07-01T02:14:55.048Z,4.00
2018-07-01T02:15:49.552Z,4.00
2018-07-01T02:15:50.130Z,4.00
2018-07-01T02:15:50.724Z,4.00
2018-07-01T02:15:51.324Z,4.00
2018-07-01T02:15:51.924Z,4.00
2018-07-01T02:15:52.524Z,4.00
2018-07-01T02:15:53.124Z,4.00
2018-07-01T02:15:53.725Z,4.00
2018-07-01T02:16:59.903Z,4.00
2018-07-01T02:17:00.474Z,4.00
2018-07-01T02:17:01.074Z,4.00
2018-07-01T02:17:01.678Z,4.00
2018-07-01T02:17:02.274Z,4.00
2018-07-01T02:17:02.873Z,4.00
2018-07-01T02:17:03.475Z,4.00
2018-07-01T02:17:04.074Z,4.00
2018-07-01T02:17:58.578Z,4.00
2018-07-01T02:17:59.149Z,4.00
2018-07-01T02:17:59.750Z,4.00
2018-07-01T02:18:00.350Z,4.00
2018-07-01T02:18:00.949Z,4.00
2018-07-01T02:18:01.550Z,4.00
2018-07-01T02:18:02.149Z,4.00
2018-07-01T02:18:02.750Z,4.00
2018-07-01T02:18:56.232Z,8.00
2018-07-01T02:18:56.800Z,8.00
2018-07-01T02:18:57.400Z,8.00
2018-07-01T02:18:58.000Z,8.00
2018-07-01T02:18:58.600Z,8.00
2018-07-01T02:18:59.200Z,8.00
2018-07-01T02:18:59.799Z,8.00
2018-07-01T02:19:00.404Z,8.00
2018-07-01T02:19:53.891Z,8.00
2018-07-01T02:19:54.454Z,8.00
2018-07-01T02:19:55.055Z,8.00
2018-07-01T02:19:55.654Z,8.00
2018-07-01T02:19:56.255Z,8.00
2018-07-01T02:19:56.853Z,8.00
2018-07-01T02:19:57.454Z,8.00
2018-07-01T02:19:58.054Z,8.00
2018-07-01T02:20:51.534Z,8.00
2018-07-01T02:20:52.106Z,8.00
2018-07-01T02:20:52.708Z,8.00
2018-07-01T02:20:53.306Z,8.00
2018-07-01T02:20:53.906Z,8.00
2018-07-01T02:20:54.505Z,8.00
2018-07-01T02:20:55.106Z,8.00
2018-07-01T02:20:55.706Z,8.00
2018-07-01T02:21:50.207Z,8.00
2018-07-01T02:21:50.780Z,8.00
2018-07-01T02:21:51.380Z,8.00
2018-07-01T02:21:51.979Z,8.00
2018-07-01T02:21:52.581Z,8.00
2018-07-01T02:21:53.179Z,8.00
2018-07-01T02:21:53.780Z,8.00
2018-07-01T02:21:54.380Z,8.00
2018-07-01T02:22:48.883Z,8.00
2018-07-01T02:22:49.457Z,8.00
2018-07-01T02:22:50.057Z,8.00
2018-07-01T02:22:50.657Z,8.00
2018-07-01T02:22:51.256Z,8.00
2018-07-01T02:22:51.856Z,8.00
2018-07-01T02:22:52.456Z,8.00
2018-07-01T02:22:53.058Z,8.00
2018-07-01T02:23:46.537Z,8.00
2018-07-01T02:23:47.110Z,8.00
2018-07-01T02:23:47.710Z,8.00
2018-07-01T02:23:48.310Z,8.00
2018-07-01T02:23:48.915Z,8.00
2018-07-01T02:23:49.509Z,8.00
2018-07-01T02:23:50.109Z,8.00
2018-07-01T02:23:50.709Z,8.00
2018-07-01T02:24:44.188Z,12.00
2018-07-01T02:24:44.761Z,12.00
2018-07-01T02:24:45.362Z,12.00
2018-07-01T02:24:45.960Z,12.00
2018-07-01T02:24:46.562Z,12.00
2018-07-01T02:24:47.160Z,12.00
2018-07-01T02:24:47.761Z,12.00
2018-07-01T02:24:48.363Z,12.00
2018-07-01T02:25:41.839Z,12.00
2018-07-01T02:25:42.412Z,12.00
2018-07-01T02:25:43.014Z,12.00
2018-07-01T02:25:43.613Z,12.00
2018-07-01T02:25:44.212Z,12.00
2018-07-01T02:25:44.814Z,12.00
2018-07-01T02:25:45.411Z,12.00
2018-07-01T02:25:46.014Z,12.00
2018-07-01T02:26:40.515Z,12.00
2018-07-01T02:26:41.087Z,12.00
2018-07-01T02:26:41.688Z,12.00
2018-07-01T02:26:42.288Z,12.00
2018-07-01T02:26:42.886Z,12.00
2018-07-01T02:26:43.486Z,12.00
2018-07-01T02:26:44.086Z,12.00
2018-07-01T02:26:44.689Z,12.00
2018-07-01T02:27:39.190Z,16.00
2018-07-01T02:27:39.763Z,16.00
2018-07-01T02:27:40.362Z,16.00
2018-07-01T02:27:40.963Z,16.00
2018-07-01T02:27:41.604Z,16.00
2018-07-01T02:27:42.163Z,16.00
2018-07-01T02:27:42.762Z,16.00
2018-07-01T02:27:43.363Z,16.00
2018-07-01T02:28:36.844Z,16.00
2018-07-01T02:28:37.415Z,16.00
2018-07-01T02:28:38.015Z,16.00
2018-07-01T02:28:38.618Z,16.00
2018-07-01T02:28:39.214Z,16.00
2018-07-01T02:28:39.815Z,16.00
2018-07-01T02:28:40.416Z,16.00
2018-07-01T02:28:41.015Z,16.00
2018-07-01T02:29:34.495Z,16.00
2018-07-01T02:29:35.067Z,16.00
2018-07-01T02:29:35.667Z,16.00
2018-07-01T02:29:36.267Z,16.00
2018-07-01T02:29:36.866Z,16.00
2018-07-01T02:29:37.467Z,16.00
2018-07-01T02:29:38.066Z,16.00
2018-07-01T02:29:38.666Z,16.00
2018-07-01T02:30:32.147Z,20.00
2018-07-01T02:30:32.720Z,20.00
2018-07-01T02:30:33.318Z,20.00
2018-07-01T02:30:33.919Z,20.00
2018-07-01T02:30:34.519Z,20.00
2018-07-01T02:30:35.120Z,16.00
2018-07-01T02:30:35.718Z,16.00
2018-07-01T02:30:36.318Z,16.00
2018-07-01T02:31:29.801Z,24.00
2018-07-01T02:31:30.370Z,24.00
2018-07-01T02:31:30.971Z,24.00
2018-07-01T02:31:31.573Z,24.00
2018-07-01T02:31:32.171Z,24.00
2018-07-01T02:31:32.770Z,20.00
2018-07-01T02:31:33.371Z,20.00
2018-07-01T02:31:33.970Z,20.00
2018-07-01T02:32:28.480Z,20.00
2018-07-01T02:32:29.045Z,20.00
2018-07-01T02:32:29.645Z,24.00
2018-07-01T02:32:30.246Z,24.00
2018-07-01T02:32:30.845Z,24.00
2018-07-01T02:32:31.445Z,24.00
2018-07-01T02:32:32.044Z,24.00
2018-07-01T02:32:32.644Z,24.00
2018-07-01T02:33:27.149Z,24.00
2018-07-01T02:33:27.721Z,24.00
2018-07-01T02:33:28.320Z,28.00
2018-07-01T02:33:28.924Z,28.00
2018-07-01T02:33:29.521Z,28.00
2018-07-01T02:33:30.121Z,28.00
2018-07-01T02:33:30.720Z,28.00
2018-07-01T02:33:31.322Z,28.00
2018-07-01T02:34:25.825Z,32.00
2018-07-01T02:34:26.396Z,32.00
2018-07-01T02:34:26.997Z,32.00
2018-07-01T02:34:27.597Z,32.00
2018-07-01T02:34:28.198Z,28.00
2018-07-01T02:34:28.796Z,28.00
2018-07-01T02:34:29.399Z,28.00
2018-07-01T02:34:29.997Z,28.00
2018-07-01T02:35:23.510Z,32.00
2018-07-01T02:35:24.152Z,32.00
2018-07-01T02:35:24.692Z,32.00
2018-07-01T02:35:25.314Z,32.00
2018-07-01T02:35:25.942Z,32.00
2018-07-01T02:35:26.469Z,32.00
2018-07-01T02:35:27.056Z,32.00
2018-07-01T02:35:27.720Z,32.00
2018-07-01T02:36:22.160Z,36.00
2018-07-01T02:36:22.723Z,36.00
2018-07-01T02:36:23.324Z,36.00
2018-07-01T02:36:23.924Z,36.00
2018-07-01T02:36:24.525Z,36.00
2018-07-01T02:36:25.123Z,36.00
2018-07-01T02:36:25.722Z,36.00
2018-07-01T02:36:26.324Z,36.00
2018-07-01T02:37:20.830Z,40.00
2018-07-01T02:37:21.414Z,40.00
2018-07-01T02:37:22.000Z,40.00
2018-07-01T02:37:22.601Z,40.00
2018-07-01T02:37:23.200Z,40.00
2018-07-01T02:37:23.800Z,40.00
2018-07-01T02:37:24.402Z,40.00
2018-07-01T02:37:25.001Z,40.00
2018-07-01T02:38:18.480Z,44.00
2018-07-01T02:38:19.054Z,44.00
2018-07-01T02:38:19.654Z,44.00
2018-07-01T02:38:20.254Z,44.00
2018-07-01T02:38:20.854Z,44.00
2018-07-01T02:38:21.452Z,44.00
2018-07-01T02:38:22.057Z,44.00
2018-07-01T02:38:22.654Z,44.00
2018-07-01T02:39:17.155Z,48.00
2018-07-01T02:39:17.728Z,48.00
2018-07-01T02:39:18.327Z,48.00
2018-07-01T02:39:18.929Z,48.00
2018-07-01T02:39:19.526Z,48.00
2018-07-01T02:39:20.126Z,48.00
2018-07-01T02:39:20.727Z,48.00
2018-07-01T02:39:21.326Z,48.00
2018-07-01T02:40:15.831Z,52.00
2018-07-01T02:40:16.403Z,52.00
2018-07-01T02:40:17.004Z,52.00
2018-07-01T02:40:17.604Z,52.00
2018-07-01T02:40:18.203Z,52.00
2018-07-01T02:40:18.803Z,52.00
2018-07-01T02:40:19.404Z,52.00
2018-07-01T02:40:20.004Z,52.00
2018-07-01T02:41:14.507Z,60.00
2018-07-01T02:41:15.084Z,60.00
2018-07-01T02:41:15.677Z,56.00
2018-07-01T02:41:16.277Z,56.00
2018-07-01T02:41:16.876Z,56.00
2018-07-01T02:41:17.477Z,56.00
2018-07-01T02:41:18.081Z,56.00
2018-07-01T02:41:18.677Z,56.00
2018-07-01T02:42:13.181Z,64.00
2018-07-01T02:42:13.755Z,64.00
2018-07-01T02:42:14.353Z,64.00
2018-07-01T02:42:14.960Z,64.00
2018-07-01T02:42:15.554Z,60.00
2018-07-01T02:42:16.153Z,60.00
2018-07-01T02:42:16.753Z,60.00
2018-07-01T02:42:17.354Z,60.00
2018-07-01T02:43:10.834Z,72.00
2018-07-01T02:43:11.421Z,72.00
2018-07-01T02:43:12.009Z,68.00
2018-07-01T02:43:12.608Z,68.00
2018-07-01T02:43:13.207Z,68.00
2018-07-01T02:43:13.807Z,68.00
2018-07-01T02:43:14.406Z,68.00
2018-07-01T02:43:15.007Z,68.00
2018-07-01T02:44:09.510Z,76.00
2018-07-01T02:44:10.083Z,76.00
2018-07-01T02:44:10.683Z,76.00
2018-07-01T02:44:11.282Z,76.00
2018-07-01T02:44:11.881Z,76.00
2018-07-01T02:44:12.482Z,76.00
2018-07-01T02:44:13.081Z,76.00
2018-07-01T02:44:13.682Z,76.00
2018-07-01T02:45:08.185Z,84.00
2018-07-01T02:45:08.758Z,84.00
2018-07-01T02:45:09.358Z,80.00
2018-07-01T02:45:09.966Z,80.00
2018-07-01T02:45:10.558Z,80.00
2018-07-01T02:45:11.157Z,80.00
2018-07-01T02:45:11.756Z,80.00
2018-07-01T02:45:12.357Z,80.00
2018-07-01T02:46:06.862Z,88.00
2018-07-01T02:46:07.435Z,88.00
2018-07-01T02:46:08.075Z,88.00
2018-07-01T02:46:08.636Z,88.00
2018-07-01T02:46:09.233Z,92.00
2018-07-01T02:46:09.833Z,92.00
2018-07-01T02:46:10.433Z,92.00
2018-07-01T02:46:11.033Z,92.00
2018-07-01T02:47:04.515Z,96.00
2018-07-01T02:47:05.087Z,96.00
2018-07-01T02:47:05.688Z,96.00
2018-07-01T02:47:06.286Z,96.00
2018-07-01T02:47:06.887Z,96.00
2018-07-01T02:47:07.485Z,96.00
2018-07-01T02:47:08.087Z,100.00
2018-07-01T02:47:08.687Z,100.00
2018-07-01T02:48:03.189Z,104.00
2018-07-01T02:48:03.760Z,104.00
2018-07-01T02:48:04.361Z,104.00
2018-07-01T02:48:04.963Z,108.00
2018-07-01T02:48:05.561Z,108.00
2018-07-01T02:48:06.159Z,108.00
2018-07-01T02:48:06.760Z,108.00
2018-07-01T02:48:07.361Z,104.00
2018-07-01T02:49:01.864Z,112.00
2018-07-01T02:49:02.439Z,112.00
2018-07-01T02:49:03.036Z,112.00
2018-07-01T02:49:03.637Z,112.00
2018-07-01T02:49:04.237Z,112.00
2018-07-01T02:49:04.836Z,112.00
2018-07-01T02:49:05.437Z,112.00
2018-07-01T02:49:06.036Z,112.00
2018-07-01T02:50:00.540Z,124.00
2018-07-01T02:50:01.112Z,124.00
2018-07-01T02:50:01.713Z,124.00
2018-07-01T02:50:02.311Z,120.00
2018-07-01T02:50:02.912Z,120.00
2018-07-01T02:50:03.512Z,120.00
2018-07-01T02:50:04.111Z,120.00
2018-07-01T02:50:04.711Z,124.00
2018-07-01T02:50:59.216Z,132.00
2018-07-01T02:50:59.791Z,132.00
2018-07-01T02:51:00.388Z,136.00
2018-07-01T02:51:00.989Z,132.00
2018-07-01T02:51:01.589Z,132.00
2018-07-01T02:51:02.188Z,132.00
2018-07-01T02:51:02.787Z,132.00
2018-07-01T02:51:03.387Z,132.00
2018-07-01T02:51:56.870Z,144.00
2018-07-01T02:51:57.440Z,140.00
2018-07-01T02:51:58.041Z,140.00
2018-07-01T02:51:58.642Z,140.00
2018-07-01T02:51:59.240Z,140.00
2018-07-01T02:51:59.840Z,140.00
2018-07-01T02:52:00.446Z,144.00
2018-07-01T02:52:01.040Z,144.00
2018-07-01T02:52:54.521Z,152.00
2018-07-01T02:52:55.093Z,152.00
2018-07-01T02:52:55.693Z,152.00
2018-07-01T02:52:56.293Z,152.00
2018-07-01T02:52:56.891Z,152.00
2018-07-01T02:52:57.491Z,156.00
2018-07-01T02:52:58.092Z,156.00
2018-07-01T02:52:58.691Z,156.00
2018-07-01T02:53:52.259Z,164.00
2018-07-01T02:53:52.817Z,164.00
2018-07-01T02:53:53.463Z,164.00
2018-07-01T02:53:53.946Z,164.00
2018-07-01T02:53:54.546Z,164.00
2018-07-01T02:53:55.146Z,164.00
2018-07-01T02:53:55.744Z,164.00
2018-07-01T02:53:56.343Z,164.00
2018-07-01T02:54:50.847Z,176.00
2018-07-01T02:54:51.418Z,176.00
2018-07-01T02:54:52.019Z,176.00
2018-07-01T02:54:52.619Z,176.00
2018-07-01T02:54:53.219Z,176.00
2018-07-01T02:54:53.840Z,176.00
2018-07-01T02:54:54.421Z,180.00
2018-07-01T02:54:55.019Z,180.00
2018-07-01T02:55:48.500Z,192.00
2018-07-01T02:55:49.071Z,192.00
2018-07-01T02:55:49.677Z,192.00
2018-07-01T02:55:50.271Z,188.00
2018-07-01T02:55:50.872Z,188.00
2018-07-01T02:55:51.471Z,188.00
2018-07-01T02:55:52.072Z,188.00
2018-07-01T02:55:52.671Z,188.00
2018-07-01T02:56:47.175Z,200.00
2018-07-01T02:56:47.747Z,200.00
2018-07-01T02:56:48.347Z,200.00
2018-07-01T02:56:48.948Z,200.00
2018-07-01T02:56:49.551Z,204.00
2018-07-01T02:56:50.147Z,204.00
2018-07-01T02:56:50.747Z,204.00
2018-07-01T02:56:51.347Z,204.00
2018-07-01T02:57:45.851Z,216.00
2018-07-01T02:57:46.423Z,216.00
2018-07-01T02:57:47.021Z,216.00
2018-07-01T02:57:47.622Z,220.00
2018-07-01T02:57:48.222Z,220.00
2018-07-01T02:57:48.821Z,220.00
2018-07-01T02:57:49.421Z,216.00
2018-07-01T02:57:50.021Z,216.00
2018-07-01T02:58:43.502Z,228.00
2018-07-01T02:58:44.076Z,228.00
2018-07-01T02:58:44.674Z,228.00
2018-07-01T02:58:45.274Z,232.00
2018-07-01T02:58:45.887Z,232.00
2018-07-01T02:58:46.475Z,232.00
2018-07-01T02:58:47.075Z,232.00
2018-07-01T02:58:47.674Z,232.00
2018-07-01T02:59:41.155Z,248.00
2018-07-01T02:59:41.727Z,248.00
2018-07-01T02:59:42.327Z,248.00
2018-07-01T02:59:42.926Z,248.00
2018-07-01T02:59:43.528Z,248.00
2018-07-01T02:59:44.127Z,244.00
2018-07-01T02:59:44.726Z,244.00
2018-07-01T02:59:45.325Z,244.00
2018-07-01T03:00:38.806Z,264.00
2018-07-01T03:00:39.377Z,264.00
2018-07-01T03:00:39.977Z,264.00
2018-07-01T03:00:40.583Z,260.00
2018-07-01T03:00:41.178Z,260.00
2018-07-01T03:00:41.777Z,260.00
2018-07-01T03:00:42.380Z,260.00
2018-07-01T03:00:42.977Z,264.00
2018-07-01T03:01:37.483Z,280.00
2018-07-01T03:01:38.054Z,276.00
2018-07-01T03:01:38.654Z,276.00
2018-07-01T03:01:39.255Z,280.00
2018-07-01T03:01:39.855Z,280.00
2018-07-01T03:01:40.453Z,280.00
2018-07-01T03:01:41.053Z,280.00
2018-07-01T03:01:41.654Z,280.00
2018-07-01T03:02:36.157Z,296.00
2018-07-01T03:02:36.741Z,300.00
2018-07-01T03:02:37.326Z,296.00
2018-07-01T03:02:37.926Z,296.00
2018-07-01T03:02:38.527Z,296.00
2018-07-01T03:02:39.127Z,296.00
2018-07-01T03:02:39.726Z,296.00
2018-07-01T03:02:40.326Z,296.00
2018-07-01T03:03:34.832Z,316.00
2018-07-01T03:03:35.404Z,316.00
2018-07-01T03:03:36.005Z,316.00
2018-07-01T03:03:36.604Z,316.00
2018-07-01T03:03:37.203Z,312.00
2018-07-01T03:03:37.806Z,316.00
2018-07-01T03:03:38.403Z,316.00
2018-07-01T03:03:39.041Z,316.00
2018-07-01T03:04:32.484Z,336.00
2018-07-01T03:04:33.057Z,336.00
2018-07-01T03:04:33.657Z,332.00
2018-07-01T03:04:34.258Z,332.00
2018-07-01T03:04:34.857Z,332.00
2018-07-01T03:04:35.458Z,332.00
2018-07-01T03:04:36.057Z,336.00
2018-07-01T03:04:36.657Z,336.00
2018-07-01T03:05:30.136Z,352.00
2018-07-01T03:05:30.709Z,352.00
2018-07-01T03:05:31.307Z,352.00
2018-07-01T03:05:31.910Z,356.00
2018-07-01T03:05:32.508Z,356.00
2018-07-01T03:05:33.108Z,356.00
2018-07-01T03:05:33.711Z,352.00
2018-07-01T03:05:34.311Z,352.00
2018-07-01T03:06:28.831Z,372.00
2018-07-01T03:06:29.381Z,376.00
2018-07-01T03:06:29.984Z,376.00
2018-07-01T03:06:30.582Z,376.00
2018-07-01T03:06:31.180Z,376.00
2018-07-01T03:06:31.782Z,376.00